Time;durP1;ratioP1;P1;durP2;ratioP2;P2;SDS_P1;SDS_P2;PMS_P1;PMS_P2;Temp;Humidity;BMP_temperature;BMP_pressure;BME280_temperature;BME280_humidity;BME280_pressure;Samples;Min_cycle;Max_cycle;Signal;HPM_P1;HPM_P2
2022/12/20 00:02:07;;;;;;;4.22;3.30;;;11.00;81.70;;;;;;5029927;28;20348;-65
2022/12/20 00:04:33;;;;;;;5.20;3.20;;;11.00;81.60;;;;;;5030378;28;20096;-65
2022/12/20 00:06:59;;;;;;;3.63;2.60;;;11.10;81.60;;;;;;5019690;28;20063;-65
2022/12/20 00:09:24;;;;;;;4.15;3.10;;;11.10;81.60;;;;;;5026682;28;20454;-65
2022/12/20 00:11:50;;;;;;;3.80;2.95;;;11.10;81.50;;;;;;5024369;28;20419;-65
2022/12/20 00:14:16;;;;;;;3.83;2.83;;;11.10;81.50;;;;;;5029665;28;20083;-65
2022/12/20 00:16:41;;;;;;;6.20;2.97;;;11.10;81.50;;;;;;5030010;28;20095;-65
2022/12/20 00:19:09;;;;;;;4.70;3.22;;;11.10;81.30;;;;;;5031257;28;20021;-64
2022/12/20 00:21:35;;;;;;;4.82;3.00;;;11.10;81.10;;;;;;5026053;28;20522;-64
2022/12/20 00:24:01;;;;;;;3.92;2.90;;;11.10;80.90;;;;;;5026750;28;20037;-64
2022/12/20 00:26:29;;;;;;;4.22;3.25;;;11.20;80.80;;;;;;5033268;28;20033;-64
2022/12/20 00:28:55;;;;;;;3.72;2.95;;;11.20;80.60;;;;;;5023760;28;20089;-64
2022/12/20 00:31:23;;;;;;;3.78;2.60;;;11.20;80.50;;;;;;5025061;28;20029;-64
2022/12/20 00:33:51;;;;;;;5.32;3.08;;;11.20;80.40;;;;;;5025767;28;20034;-64
2022/12/20 00:36:18;;;;;;;4.30;3.30;;;11.30;80.30;;;;;;5027625;28;20036;-64
2022/12/20 00:38:45;;;;;;;3.42;2.40;;;11.30;80.10;;;;;;5033201;28;20399;-64
2022/12/20 00:41:13;;;;;;;4.30;2.97;;;11.30;80.10;;;;;;5029375;28;20021;-64
2022/12/20 00:43:40;;;;;;;4.47;2.72;;;11.40;80.00;;;;;;5027860;28;20565;-64
2022/12/20 00:46:07;;;;;;;3.95;2.65;;;11.40;79.80;;;;;;5032759;28;20060;-64
2022/12/20 00:48:34;;;;;;;3.78;2.80;;;11.50;79.60;;;;;;5032383;28;20021;-64
2022/12/20 00:51:03;;;;;;;4.63;2.63;;;11.50;79.30;;;;;;5028128;28;20049;-64
2022/12/20 00:53:30;;;;;;;3.50;2.38;;;11.60;79.30;;;;;;5028643;28;20025;-64
2022/12/20 00:55:55;;;;;;;3.20;2.60;;;11.60;79.10;;;;;;5032054;28;20107;-64
2022/12/20 00:58:21;;;;;;;3.78;2.80;;;11.60;78.90;;;;;;5032496;28;20476;-64
2022/12/20 01:00:47;;;;;;;3.78;2.75;;;11.60;78.70;;;;;;5028522;28;20044;-64
2022/12/20 01:03:13;;;;;;;4.38;2.95;;;11.70;78.70;;;;;;5027512;28;20100;-64
2022/12/20 01:05:38;;;;;;;4.22;2.90;;;11.70;78.60;;;;;;5028539;28;20464;-65
2022/12/20 01:08:05;;;;;;;4.22;2.67;;;11.70;78.30;;;;;;5029361;28;20091;-65
2022/12/20 01:10:31;;;;;;;4.93;2.72;;;11.80;78.20;;;;;;5030244;28;20025;-65
2022/12/20 01:12:56;;;;;;;4.88;2.80;;;11.80;78.10;;;;;;5024008;28;20532;-65
2022/12/20 01:15:22;;;;;;;5.85;2.90;;;11.80;78.00;;;;;;5029808;28;20042;-65
2022/12/20 01:17:48;;;;;;;6.43;2.92;;;11.90;77.80;;;;;;5028913;28;20021;-65
2022/12/20 01:20:14;;;;;;;4.22;2.80;;;11.80;78.40;;;;;;5033212;28;20526;-65
2022/12/20 01:22:40;;;;;;;4.25;2.30;;;11.90;77.70;;;;;;5030989;28;20029;-64
2022/12/20 01:25:06;;;;;;;4.05;2.47;;;11.90;77.70;;;;;;5035636;28;20013;-65
2022/12/20 01:27:32;;;;;;;3.30;2.25;;;11.90;77.70;;;;;;5033167;28;20032;-65
2022/12/20 01:29:57;;;;;;;4.25;2.75;;;11.90;77.80;;;;;;5032839;28;20060;-64
2022/12/20 01:32:23;;;;;;;4.40;2.75;;;11.90;77.70;;;;;;5030383;28;20439;-64
2022/12/20 01:34:49;;;;;;;3.95;2.50;;;11.90;77.70;;;;;;5034005;28;20438;-64
2022/12/20 01:37:15;;;;;;;4.00;2.60;;;11.90;77.80;;;;;;5036032;28;20025;-64
2022/12/20 01:39:40;;;;;;;3.80;2.75;;;11.90;77.70;;;;;;5033779;28;20047;-65
2022/12/20 01:42:06;;;;;;;4.15;2.78;;;11.90;77.80;;;;;;5032403;28;20112;-65
2022/12/20 01:44:31;;;;;;;5.18;2.67;;;11.90;77.90;;;;;;5031929;28;20025;-64
2022/12/20 01:46:57;;;;;;;4.05;2.60;;;11.90;78.00;;;;;;5027432;28;20029;-65
2022/12/20 01:49:31;;;;;;;2.75;2.40;;;11.90;78.10;;;;;;5032081;28;20097;-64
2022/12/20 01:52:10;;;;;;;3.92;2.58;;;11.90;78.40;;;;;;5033369;28;20053;-65
2022/12/20 01:55:02;;;;;;;5.57;3.08;;;11.90;78.90;;;;;;5035694;28;20052;-65
2022/12/20 01:58:03;;;;;;;4.00;3.13;;;11.80;79.30;;;;;;5035782;28;20025;-66
2022/12/20 02:00:29;;;;;;;4.20;2.83;;;11.70;79.90;;;;;;4978203;28;20487;-65
2022/12/20 02:02:57;;;;;;;3.50;2.80;;;11.70;80.40;;;;;;5033229;28;20029;-65
2022/12/20 02:05:23;;;;;;;5.43;3.13;;;11.60;81.00;;;;;;5025482;28;20026;-65
2022/12/20 02:07:52;;;;;;;3.92;2.70;;;11.60;81.50;;;;;;5035832;28;20037;-65
2022/12/20 02:10:21;;;;;;;4.22;2.92;;;11.50;81.90;;;;;;5033661;28;20049;-65
2022/12/20 02:12:51;;;;;;;5.07;3.05;;;11.50;82.20;;;;;;5033852;28;20064;-65
2022/12/20 02:15:41;;;;;;;3.78;3.03;;;11.40;82.90;;;;;;5031772;28;20036;-65
2022/12/20 02:18:19;;;;;;;4.68;3.17;;;11.40;83.60;;;;;;5029045;28;20033;-65
2022/12/20 02:20:54;;;;;;;3.97;2.80;;;11.40;84.10;;;;;;5033380;28;20068;-65
2022/12/20 02:23:44;;;;;;;6.18;3.25;;;11.30;84.70;;;;;;5034976;28;20117;-65
2022/12/20 02:26:45;;;;;;;5.57;3.30;;;11.30;85.50;;;;;;5035405;28;20028;-64
2022/12/20 02:29:19;;;;;;;4.35;2.83;;;11.20;85.90;;;;;;5023808;28;20036;-64
2022/12/20 02:32:01;;;;;;;4.88;3.35;;;11.20;86.50;;;;;;5030952;28;20033;-64
2022/12/20 02:34:28;;;;;;;4.40;3.70;;;11.20;86.80;;;;;;5028727;28;20026;-65
2022/12/20 02:36:54;;;;;;;4.90;3.13;;;11.20;87.10;;;;;;5033057;28;20033;-65
2022/12/20 02:39:22;;;;;;;4.85;3.10;;;11.10;87.40;;;;;;5032487;28;20079;-65
2022/12/20 02:41:52;;;;;;;5.80;3.60;;;11.10;87.70;;;;;;5031545;28;20013;-64
2022/12/20 02:47:12;;;;;;;5.47;3.65;;;11.10;88.40;;;;;;5033384;28;20104;-64
2022/12/20 02:49:41;;;;;;;4.90;3.35;;;11.10;88.50;;;;;;5033970;28;20104;-63
2022/12/20 02:52:09;;;;;;;4.57;3.33;;;11.10;88.70;;;;;;5030379;28;20100;-63
2022/12/20 02:54:36;;;;;;;5.63;3.47;;;11.10;88.90;;;;;;5027826;28;20036;-64
2022/12/20 02:57:06;;;;;;;4.72;3.30;;;11.10;89.10;;;;;;5035781;28;20032;-64
2022/12/20 02:59:56;;;;;;;4.22;3.10;;;11.10;89.30;;;;;;5029865;28;20101;-64
2022/12/20 03:02:23;;;;;;;4.78;3.33;;;11.10;89.40;;;;;;5028554;28;20423;-64
2022/12/20 03:04:50;;;;;;;4.28;3.00;;;11.10;89.50;;;;;;5033888;28;20105;-64
2022/12/20 03:07:15;;;;;;;5.10;3.20;;;11.10;89.90;;;;;;5036132;28;20025;-64
2022/12/20 03:09:43;;;;;;;5.55;3.20;;;11.10;90.00;;;;;;5034171;28;20032;-64
2022/12/20 03:12:11;;;;;;;3.80;3.10;;;11.10;90.10;;;;;;5030874;28;20025;-64
2022/12/20 03:14:37;;;;;;;4.07;3.00;;;11.10;90.10;;;;;;5032520;28;20431;-64
2022/12/20 03:17:04;;;;;;;4.13;2.83;;;11.10;90.40;;;;;;5029294;28;20022;-64
2022/12/20 03:19:30;;;;;;;5.45;3.38;;;11.10;90.10;;;;;;5031759;28;20502;-64
2022/12/20 03:21:55;;;;;;;3.25;2.60;;;11.20;90.20;;;;;;5028293;28;20096;-64
2022/12/20 03:24:21;;;;;;;4.28;3.13;;;11.20;90.10;;;;;;5030357;28;20075;-64
2022/12/20 03:26:47;;;;;;;5.20;3.30;;;11.20;90.10;;;;;;5028792;28;20516;-65
2022/12/20 03:29:12;;;;;;;6.22;3.75;;;11.20;90.10;;;;;;5030166;28;20472;-64
2022/12/20 03:31:38;;;;;;;5.80;3.30;;;11.20;90.10;;;;;;5029587;28;20678;-64
2022/12/20 03:34:04;;;;;;;6.05;3.55;;;11.20;90.10;;;;;;5025245;28;20798;-65
2022/12/20 03:36:29;;;;;;;3.45;2.90;;;11.20;90.40;;;;;;5033736;28;20034;-65
2022/12/20 03:38:55;;;;;;;4.55;3.35;;;11.20;90.10;;;;;;5037460;28;20020;-65
2022/12/20 03:41:21;;;;;;;4.10;3.28;;;11.20;90.10;;;;;;5032446;28;20034;-65
2022/12/20 03:43:48;;;;;;;5.10;3.00;;;11.20;90.10;;;;;;5034259;28;20021;-64
2022/12/20 03:46:14;;;;;;;3.40;2.83;;;11.20;90.00;;;;;;5031066;28;20056;-65
2022/12/20 03:48:40;;;;;;;4.05;2.70;;;11.20;90.00;;;;;;5034012;28;20104;-65
2022/12/20 03:51:05;;;;;;;5.03;3.92;;;11.30;90.00;;;;;;5032647;28;20519;-65
2022/12/20 03:53:31;;;;;;;3.97;3.38;;;11.30;89.90;;;;;;5030706;28;20072;-64
2022/12/20 03:55:57;;;;;;;5.82;3.30;;;11.30;89.80;;;;;;5028901;28;20021;-64
2022/12/20 03:58:23;;;;;;;4.65;3.03;;;11.30;89.80;;;;;;5032680;28;20434;-65
2022/12/20 04:00:48;;;;;;;4.80;3.50;;;11.30;89.70;;;;;;5028083;28;21652;-64
2022/12/20 04:03:14;;;;;;;4.30;3.40;;;11.30;89.50;;;;;;5024498;28;20478;-65
2022/12/20 04:05:39;;;;;;;4.30;2.90;;;11.30;89.40;;;;;;5029072;28;20029;-65
2022/12/20 04:08:05;;;;;;;5.50;3.40;;;11.30;89.30;;;;;;5029310;28;20496;-65
2022/12/20 04:10:31;;;;;;;5.55;3.35;;;11.40;89.20;;;;;;5033289;28;20104;-65
2022/12/20 04:12:56;;;;;;;4.93;3.10;;;11.40;89.10;;;;;;5032721;28;20390;-65
2022/12/20 04:15:22;;;;;;;4.18;3.05;;;11.40;88.90;;;;;;5025484;28;20029;-65
2022/12/20 04:17:47;;;;;;;3.80;2.90;;;11.40;88.80;;;;;;5028657;28;20563;-65
2022/12/20 04:20:18;;;;;;;3.70;2.72;;;11.40;88.70;;;;;;5029505;28;20048;-65
2022/12/20 04:22:52;;;;;;;4.10;2.83;;;11.40;88.50;;;;;;5030427;28;20022;-66
2022/12/20 04:25:20;;;;;;;4.78;3.40;;;11.40;88.40;;;;;;5031958;28;20024;-66
2022/12/20 04:27:46;;;;;;;4.07;2.97;;;11.40;88.20;;;;;;5020390;28;20434;-66
2022/12/20 04:30:12;;;;;;;4.28;2.95;;;11.50;88.10;;;;;;5029509;28;20032;-66
2022/12/20 04:32:37;;;;;;;3.97;3.00;;;11.50;88.00;;;;;;5025460;28;20026;-66
2022/12/20 04:35:03;;;;;;;5.63;3.22;;;11.50;87.90;;;;;;5030605;28;20079;-66
2022/12/20 04:37:30;;;;;;;4.50;3.20;;;11.50;87.80;;;;;;5030971;28;20037;-65
2022/12/20 04:39:57;;;;;;;5.18;3.22;;;11.50;87.60;;;;;;5029719;28;20045;-65
2022/12/20 04:42:23;;;;;;;5.80;3.33;;;11.60;87.40;;;;;;5030218;28;20104;-66
2022/12/20 04:44:48;;;;;;;4.78;2.92;;;11.60;87.30;;;;;;5030404;28;20105;-65
2022/12/20 04:47:14;;;;;;;4.25;3.05;;;11.60;87.20;;;;;;5032226;28;20098;-65
2022/12/20 04:49:39;;;;;;;6.45;2.70;;;11.60;87.00;;;;;;5027754;28;20032;-64
2022/12/20 04:54:49;;;;;;;4.75;3.03;;;11.70;86.80;;;;;;5027842;28;20040;-65
2022/12/20 04:57:15;;;;;;;3.28;2.47;;;11.70;86.70;;;;;;5034222;28;20120;-65
2022/12/20 04:59:41;;;;;;;3.65;2.60;;;11.70;86.70;;;;;;5027957;28;20024;-66
2022/12/20 05:02:06;;;;;;;4.28;2.97;;;11.70;86.50;;;;;;5028052;28;20029;-66
2022/12/20 05:04:32;;;;;;;6.60;3.20;;;11.70;86.40;;;;;;5032986;28;20429;-65
2022/12/20 05:06:57;;;;;;;2.80;2.50;;;11.80;86.30;;;;;;5017921;28;20095;-66
2022/12/20 05:09:23;;;;;;;5.07;2.80;;;11.80;86.20;;;;;;5027458;28;20025;-66
2022/12/20 05:11:48;;;;;;;4.60;2.63;;;11.80;86.20;;;;;;5031427;28;20037;-66
2022/12/20 05:14:14;;;;;;;6.00;2.78;;;11.80;86.10;;;;;;5029635;28;20061;-66
2022/12/20 05:16:39;;;;;;;4.47;3.25;;;11.80;86.10;;;;;;5033086;28;20030;-66
2022/12/20 05:19:05;;;;;;;4.70;2.95;;;11.80;86.20;;;;;;5024323;28;20022;-66
2022/12/20 05:26:59;;;;;;;4.55;2.90;;;11.80;87.00;;;;;;5028771;28;20117;-65
2022/12/20 05:29:25;;;;;;;2.92;2.53;;;11.70;87.50;;;;;;5031290;28;20831;-65
2022/12/20 05:31:50;;;;;;;3.83;2.97;;;11.70;87.70;;;;;;5032466;28;20144;-65
2022/12/20 05:34:17;;;;;;;5.90;3.58;;;11.70;88.00;;;;;;5030742;28;20025;-64
2022/12/20 05:36:42;;;;;;;5.18;3.67;;;11.70;88.60;;;;;;5030570;28;20029;-64
2022/12/20 05:39:10;;;;;;;4.05;3.10;;;11.70;89.00;;;;;;5035018;28;20090;-64
2022/12/20 05:41:37;;;;;;;4.63;3.20;;;11.60;89.40;;;;;;5031692;28;20411;-64
2022/12/20 05:44:03;;;;;;;4.95;3.20;;;11.60;89.60;;;;;;5032210;28;20022;-64
2022/12/20 05:46:28;;;;;;;5.30;3.85;;;11.60;89.70;;;;;;5027121;28;20022;-65
2022/12/20 05:48:54;;;;;;;6.18;3.40;;;11.60;90.00;;;;;;5032187;28;20475;-65
2022/12/20 05:51:20;;;;;;;6.78;3.10;;;11.60;90.10;;;;;;5030789;28;20030;-64
2022/12/20 05:53:45;;;;;;;6.07;3.88;;;11.60;90.10;;;;;;5028584;28;20072;-65
2022/12/20 05:56:11;;;;;;;4.80;3.30;;;11.60;90.20;;;;;;5027254;28;20034;-65
2022/12/20 05:58:36;;;;;;;5.43;3.25;;;11.60;90.20;;;;;;5028302;28;20030;-65
2022/12/20 06:01:04;;;;;;;5.47;3.25;;;11.60;90.30;;;;;;5030043;28;20036;-65
2022/12/20 06:03:30;;;;;;;4.70;2.95;;;11.60;90.30;;;;;;5032234;28;20018;-65
2022/12/20 06:05:56;;;;;;;4.25;2.88;;;11.60;90.40;;;;;;5035305;28;20017;-64
2022/12/20 06:08:22;;;;;;;5.75;2.90;;;11.60;90.30;;;;;;5032976;28;20033;-65
2022/12/20 06:10:48;;;;;;;3.65;2.70;;;11.60;90.30;;;;;;5037113;28;20083;-65
2022/12/20 06:13:14;;;;;;;3.90;2.80;;;11.60;90.30;;;;;;5032725;28;20462;-65
2022/12/20 06:15:40;;;;;;;3.40;2.80;;;11.70;90.30;;;;;;5036322;28;20460;-65
2022/12/20 06:18:06;;;;;;;3.60;2.50;;;11.70;90.20;;;;;;5028598;28;20087;-65
2022/12/20 06:20:33;;;;;;;3.78;2.50;;;11.70;90.10;;;;;;5035037;28;20609;-64
2022/12/20 06:22:59;;;;;;;3.42;2.60;;;11.80;90.10;;;;;;5030634;28;20411;-65
2022/12/20 06:25:25;;;;;;;4.82;2.85;;;11.80;90.00;;;;;;5033091;28;20022;-65
2022/12/20 06:27:50;;;;;;;3.42;2.42;;;11.70;90.00;;;;;;5029921;28;20069;-65
2022/12/20 06:30:16;;;;;;;3.60;2.50;;;11.80;90.00;;;;;;5031665;28;20041;-65
2022/12/20 06:32:42;;;;;;;4.32;2.28;;;11.80;89.90;;;;;;5033229;28;20029;-65
2022/12/20 06:35:08;;;;;;;4.10;2.67;;;11.80;89.80;;;;;;5028701;28;20051;-65
2022/12/20 06:37:33;;;;;;;4.85;3.15;;;11.80;89.70;;;;;;5027711;28;20083;-66
2022/12/20 06:39:59;;;;;;;2.47;2.22;;;11.80;89.50;;;;;;5027309;28;20021;-65
2022/12/20 06:42:25;;;;;;;4.43;3.17;;;11.80;89.40;;;;;;5025169;28;20085;-65
2022/12/20 06:44:50;;;;;;;4.47;2.65;;;11.80;89.30;;;;;;5027113;28;20040;-66
2022/12/20 06:47:16;;;;;;;4.88;2.70;;;11.80;89.20;;;;;;5026676;28;20030;-66
2022/12/20 06:49:41;;;;;;;3.38;2.40;;;11.80;89.10;;;;;;5031725;28;20026;-66
2022/12/20 06:52:07;;;;;;;5.43;2.85;;;11.90;89.00;;;;;;5031384;28;20084;-66
2022/12/20 06:54:33;;;;;;;5.05;2.90;;;11.80;88.80;;;;;;5032711;28;20418;-66
2022/12/20 06:56:58;;;;;;;3.25;2.40;;;11.90;88.60;;;;;;5029497;28;20028;-66
2022/12/20 06:59:24;;;;;;;4.28;2.50;;;11.90;88.50;;;;;;5030252;28;20136;-66
2022/12/20 07:01:49;;;;;;;3.72;2.50;;;11.90;88.40;;;;;;5029833;28;20037;-66
2022/12/20 07:04:16;;;;;;;5.65;2.97;;;11.90;88.20;;;;;;5030601;28;20503;-66
2022/12/20 07:06:41;;;;;;;4.78;2.67;;;11.90;88.00;;;;;;5029020;28;20029;-65
2022/12/20 07:09:08;;;;;;;3.25;2.55;;;11.90;87.60;;;;;;5032133;28;20024;-66
2022/12/20 07:11:34;;;;;;;4.85;2.80;;;11.90;87.50;;;;;;5029520;28;20063;-65
2022/12/20 07:13:59;;;;;;;3.05;2.17;;;11.90;87.40;;;;;;5031028;28;20049;-66
2022/12/20 07:16:25;;;;;;;4.18;2.72;;;11.90;87.30;;;;;;5028087;28;20104;-65
2022/12/20 07:18:52;;;;;;;3.70;2.55;;;11.90;87.00;;;;;;5032098;28;20032;-66
2022/12/20 07:21:18;;;;;;;2.63;2.20;;;11.90;87.30;;;;;;5031570;28;20029;-65
2022/12/20 07:23:45;;;;;;;3.05;2.38;;;11.90;86.50;;;;;;5031007;28;20025;-66
2022/12/20 07:26:12;;;;;;;3.25;2.60;;;11.90;86.30;;;;;;5030991;28;20037;-65
2022/12/20 07:28:38;;;;;;;6.07;2.72;;;11.90;86.20;;;;;;5029960;28;20033;-65
2022/12/20 07:31:04;;;;;;;4.45;2.60;;;11.90;85.80;;;;;;5031417;28;20025;-65
2022/12/20 07:33:30;;;;;;;4.82;2.90;;;12.00;86.20;;;;;;5029354;28;20025;-66
2022/12/20 07:36:08;;;;;;;4.63;2.50;;;12.00;85.40;;;;;;5032485;28;20426;-66
2022/12/20 07:38:34;;;;;;;4.35;2.70;;;12.00;85.20;;;;;;5031844;28;20033;-65
2022/12/20 07:41:07;;;;;;;3.67;2.60;;;12.00;84.70;;;;;;5036399;28;20360;-66
2022/12/20 07:43:33;;;;;;;4.57;2.85;;;12.00;84.60;;;;;;5019975;28;20018;-66
2022/12/20 07:46:01;;;;;;;3.85;2.40;;;12.00;84.60;;;;;;5029016;28;20118;-66
2022/12/20 07:48:26;;;;;;;2.90;2.40;;;11.90;84.40;;;;;;5029465;28;20051;-66
2022/12/20 07:50:57;;;;;;;2.95;2.20;;;11.90;84.50;;;;;;5029817;28;20539;-65
2022/12/20 07:53:26;;;;;;;3.40;2.55;;;11.90;84.40;;;;;;5028740;28;20133;-66
2022/12/20 07:55:52;;;;;;;3.03;2.47;;;12.00;84.30;;;;;;5029230;28;20589;-65
2022/12/20 07:58:19;;;;;;;3.13;2.25;;;12.00;84.00;;;;;;5032990;28;20030;-66
2022/12/20 08:00:45;;;;;;;3.05;2.30;;;12.00;83.90;;;;;;5028391;28;20033;-66
2022/12/20 08:03:16;;;;;;;5.78;2.55;;;12.00;83.80;;;;;;5030537;28;20033;-66
2022/12/20 08:05:46;;;;;;;3.28;2.30;;;12.00;83.50;;;;;;5033945;28;20017;-66
2022/12/20 08:08:12;;;;;;;5.25;2.47;;;12.00;83.40;;;;;;5028328;28;20054;-65
2022/12/20 08:10:38;;;;;;;4.35;2.95;;;12.00;83.30;;;;;;5033957;28;20503;-66
2022/12/20 08:13:05;;;;;;;4.70;2.65;;;12.00;83.30;;;;;;5033892;28;20035;-66
2022/12/20 08:15:33;;;;;;;3.65;2.42;;;12.00;83.20;;;;;;5028436;28;20017;-66
2022/12/20 08:17:59;;;;;;;3.17;2.40;;;12.00;83.20;;;;;;5031102;28;20072;-66
2022/12/20 08:20:25;;;;;;;4.68;2.90;;;12.10;83.20;;;;;;5033009;28;20057;-66
2022/12/20 08:22:50;;;;;;;5.43;2.70;;;12.00;83.10;;;;;;5032340;28;20025;-66
2022/12/20 08:25:16;;;;;;;3.00;2.33;;;12.00;83.10;;;;;;5029713;28;20056;-66
2022/12/20 08:27:42;;;;;;;4.75;2.70;;;12.00;83.20;;;;;;5031840;28;20112;-66
2022/12/20 08:30:09;;;;;;;4.25;3.20;;;12.00;83.30;;;;;;5026632;28;20023;-66
2022/12/20 08:32:35;;;;;;;3.38;2.35;;;12.00;83.40;;;;;;5031584;28;20391;-66
2022/12/20 08:35:01;;;;;;;3.60;2.88;;;11.90;83.50;;;;;;5033653;28;20044;-66
2022/12/20 08:37:26;;;;;;;3.75;2.97;;;11.90;83.50;;;;;;5026871;28;21727;-66
2022/12/20 08:39:52;;;;;;;3.90;2.80;;;11.90;83.70;;;;;;5028661;28;20021;-66
2022/12/20 08:42:18;;;;;;;4.28;2.55;;;11.80;84.10;;;;;;5022847;28;20048;-66
2022/12/20 08:44:43;;;;;;;2.75;2.30;;;11.80;84.30;;;;;;5028473;28;20023;-66
2022/12/20 08:47:09;;;;;;;3.03;2.40;;;11.90;84.40;;;;;;5029383;28;20028;-66
2022/12/20 08:49:35;;;;;;;4.00;2.42;;;11.80;84.60;;;;;;5026981;28;20033;-66
2022/12/20 08:52:01;;;;;;;3.40;2.55;;;11.80;84.60;;;;;;5027632;28;20033;-66
2022/12/20 08:54:26;;;;;;;4.57;2.65;;;11.90;84.60;;;;;;5033147;28;20029;-66
2022/12/20 08:56:52;;;;;;;2.47;2.20;;;11.90;84.50;;;;;;5029712;28;20033;-66
2022/12/20 08:59:18;;;;;;;4.13;2.60;;;11.90;84.50;;;;;;5028410;28;20387;-66
2022/12/20 09:01:43;;;;;;;3.83;2.40;;;11.90;84.50;;;;;;5029405;28;20014;-66
2022/12/20 09:04:10;;;;;;;3.63;2.45;;;11.90;84.50;;;;;;5029150;28;20494;-66
2022/12/20 09:06:36;;;;;;;5.00;3.00;;;11.90;84.50;;;;;;5028034;28;20029;-66
2022/12/20 09:09:03;;;;;;;4.00;2.38;;;11.90;84.60;;;;;;5029977;28;20033;-66
2022/12/20 09:11:28;;;;;;;4.18;2.60;;;11.90;84.80;;;;;;5031400;28;20060;-66
2022/12/20 09:13:56;;;;;;;5.88;2.70;;;11.90;85.00;;;;;;5033639;28;20022;-66
2022/12/20 09:16:24;;;;;;;3.78;2.25;;;11.90;85.40;;;;;;5028350;28;20075;-66
2022/12/20 09:18:51;;;;;;;3.42;2.30;;;11.80;85.60;;;;;;5031023;28;20049;-66
2022/12/20 09:21:17;;;;;;;4.25;2.80;;;11.80;85.80;;;;;;5029715;28;21503;-66
2022/12/20 09:23:43;;;;;;;3.65;2.55;;;11.80;86.20;;;;;;5031546;28;20030;-66
2022/12/20 09:26:17;;;;;;;4.80;2.70;;;11.70;86.50;;;;;;5029737;28;20105;-66
2022/12/20 09:28:43;;;;;;;5.40;3.10;;;11.70;87.10;;;;;;5029629;28;20503;-66
2022/12/20 09:31:18;;;;;;;3.85;2.58;;;11.60;87.50;;;;;;5035626;28;20037;-67
2022/12/20 09:33:44;;;;;;;4.13;2.40;;;11.60;88.10;;;;;;5023043;28;20025;-66
2022/12/20 09:36:12;;;;;;;5.65;3.03;;;11.60;88.20;;;;;;5031782;28;20442;-66
2022/12/20 09:38:38;;;;;;;5.07;2.63;;;11.50;88.70;;;;;;5026997;28;20022;-66
2022/12/20 09:41:07;;;;;;;5.30;3.05;;;11.40;89.10;;;;;;5036675;28;20021;-66
2022/12/20 09:43:33;;;;;;;4.60;2.70;;;11.40;89.40;;;;;;5032235;28;20100;-65
2022/12/20 09:46:03;;;;;;;5.18;2.90;;;11.40;89.70;;;;;;5028659;28;20030;-65
2022/12/20 09:48:34;;;;;;;4.80;3.05;;;11.50;90.00;;;;;;5032122;28;20029;-65
2022/12/20 09:51:37;;;;;;;5.80;3.10;;;11.40;90.00;;;;;;5029610;28;20380;-65
2022/12/20 09:54:22;;;;;;;5.95;3.20;;;11.40;90.10;;;;;;5029048;28;20053;-65
2022/12/20 09:57:22;;;;;;;5.90;3.10;;;11.40;90.20;;;;;;5032583;28;20022;-65
2022/12/20 09:59:48;;;;;;;4.53;3.00;;;11.40;90.20;;;;;;5029188;28;20041;-66
2022/12/20 10:02:19;;;;;;;4.80;2.97;;;11.50;90.20;;;;;;5033390;28;20126;-66
2022/12/20 10:04:45;;;;;;;3.47;2.55;;;11.50;90.20;;;;;;5034822;28;20036;-65
2022/12/20 10:07:38;;;;;;;5.20;3.13;;;11.50;90.20;;;;;;5036484;28;20032;-65
2022/12/20 10:10:13;;;;;;;4.82;2.65;;;11.50;90.10;;;;;;5035371;28;20033;-65
2022/12/20 10:13:09;;;;;;;5.15;2.47;;;11.60;90.10;;;;;;5026850;28;20025;-66
2022/12/20 10:15:58;;;;;;;5.55;3.03;;;11.60;90.10;;;;;;5031533;28;20094;-65
2022/12/20 10:18:38;;;;;;;3.30;2.40;;;11.50;90.20;;;;;;4982156;28;20051;-65
2022/12/20 10:21:10;;;;;;;4.20;2.53;;;11.50;90.20;;;;;;5033479;28;20514;-65
2022/12/20 10:23:41;;;;;;;4.50;3.33;;;11.50;90.20;;;;;;5036269;28;20030;-65
2022/12/20 10:26:12;;;;;;;5.00;2.55;;;11.60;90.20;;;;;;5032207;28;20064;-65
2022/12/20 10:28:38;;;;;;;4.43;2.63;;;11.60;90.20;;;;;;5030161;28;20096;-65
2022/12/20 10:31:14;;;;;;;4.10;2.95;;;11.60;90.10;;;;;;5033204;28;20052;-66
2022/12/20 10:33:40;;;;;;;5.30;2.90;;;11.60;90.20;;;;;;5035834;28;20010;-65
2022/12/20 10:36:25;;;;;;;4.75;2.55;;;11.50;90.20;;;;;;5032552;28;20056;-65
2022/12/20 10:38:57;;;;;;;3.63;2.70;;;11.60;90.20;;;;;;5031808;28;20112;-66
2022/12/20 10:41:26;;;;;;;5.35;3.25;;;11.50;90.20;;;;;;5030821;28;20025;-66
2022/12/20 10:44:15;;;;;;;4.53;2.63;;;11.50;90.20;;;;;;5035040;28;20028;-66
2022/12/20 10:46:44;;;;;;;4.35;2.60;;;11.50;90.40;;;;;;5033520;28;20052;-66
2022/12/20 10:49:35;;;;;;;3.65;2.70;;;11.50;90.40;;;;;;5031793;28;20104;-66
2022/12/20 10:52:07;;;;;;;5.53;2.90;;;11.40;90.60;;;;;;5029260;28;20104;-65
2022/12/20 10:54:38;;;;;;;5.27;2.83;;;11.40;90.70;;;;;;5031542;28;20022;-66
2022/12/20 10:57:24;;;;;;;5.80;3.00;;;11.50;90.70;;;;;;5033412;28;20284;-66
2022/12/20 11:00:01;;;;;;;4.78;2.80;;;11.50;90.70;;;;;;5035688;28;20067;-66
2022/12/20 11:02:27;;;;;;;4.10;3.03;;;11.50;90.80;;;;;;5026916;28;20033;-66
2022/12/20 11:05:17;;;;;;;3.72;2.60;;;11.50;90.70;;;;;;5036292;28;20139;-66
2022/12/20 11:07:58;;;;;;;4.10;2.65;;;11.60;90.70;;;;;;5033971;28;20029;-66
2022/12/20 11:10:28;;;;;;;4.95;3.17;;;11.60;90.70;;;;;;5033693;28;20030;-66
2022/12/20 11:13:02;;;;;;;8.02;3.80;;;11.60;90.70;;;;;;5035322;28;20583;-66
2022/12/20 11:15:31;;;;;;;4.38;3.10;;;11.50;90.80;;;;;;5024234;28;20026;-66
2022/12/20 11:18:13;;;;;;;4.88;3.20;;;11.50;90.90;;;;;;5033665;28;20495;-66
2022/12/20 11:20:57;;;;;;;4.15;2.83;;;11.50;90.90;;;;;;5031666;28;20511;-66
2022/12/20 11:23:45;;;;;;;6.35;3.42;;;11.50;90.90;;;;;;5031519;28;20792;-66
2022/12/20 11:26:30;;;;;;;4.82;3.30;;;11.50;90.90;;;;;;5033472;28;20034;-66
2022/12/20 11:29:33;;;;;;;5.20;3.40;;;11.50;91.10;;;;;;5030730;28;20029;-66
2022/12/20 11:32:15;;;;;;;6.13;3.72;;;11.50;91.00;;;;;;5033116;28;20379;-66
2022/12/20 11:34:55;;;;;;;;;;;11.50;91.10;;;;;;5032094;28;20391;-66
2022/12/20 11:37:24;;;;;;;8.02;4.40;;;11.50;91.10;;;;;;5042982;28;20082;-66
2022/12/20 11:40:15;;;;;;;6.18;3.00;;;11.50;91.30;;;;;;5032670;28;20028;-66
2022/12/20 11:42:50;;;;;;;5.13;3.90;;;11.40;91.30;;;;;;5030894;28;20036;-66
2022/12/20 11:45:45;;;;;;;4.00;3.10;;;11.50;91.40;;;;;;5030434;28;20033;-66
2022/12/20 11:48:35;;;;;;;4.57;2.90;;;11.50;91.40;;;;;;4937569;28;20095;-66
2022/12/20 11:51:04;;;;;;;6.53;3.53;;;11.60;91.40;;;;;;5029742;28;20391;-66
2022/12/20 11:54:10;;;;;;;4.97;3.17;;;11.60;91.40;;;;;;5034097;28;20028;-66
2022/12/20 11:56:39;;;;;;;6.63;3.80;;;11.60;91.40;;;;;;5029337;28;20561;-66
2022/12/20 11:59:09;;;;;;;5.75;3.83;;;11.60;91.40;;;;;;5031255;28;20018;-66
2022/12/20 12:01:43;;;;;;;4.97;3.80;;;11.60;91.50;;;;;;5028055;28;20032;-66
2022/12/20 12:04:18;;;;;;;5.20;3.80;;;11.60;91.50;;;;;;5031920;28;20030;-66
2022/12/20 12:06:58;;;;;;;5.20;3.30;;;11.60;91.50;;;;;;5030456;28;20514;-66
2022/12/20 12:09:49;;;;;;;4.55;3.45;;;11.60;91.50;;;;;;5030186;28;20593;-66
2022/12/20 12:12:26;;;;;;;5.80;3.10;;;11.60;91.50;;;;;;5006965;28;20045;-66
2022/12/20 12:15:10;;;;;;;6.20;3.50;;;11.70;91.50;;;;;;5044594;28;20116;-66
2022/12/20 12:17:50;;;;;;;5.15;3.30;;;11.70;91.50;;;;;;5028662;28;20119;-66
2022/12/20 12:20:43;;;;;;;5.63;3.55;;;11.60;91.50;;;;;;5035735;28;20058;-66
2022/12/20 12:23:29;;;;;;;6.25;4.20;;;11.70;91.60;;;;;;5014926;28;20447;-66
2022/12/20 12:25:58;;;;;;;5.63;3.40;;;11.70;91.60;;;;;;5031723;28;20033;-66
2022/12/20 12:28:23;;;;;;;4.15;3.03;;;11.70;91.70;;;;;;5041825;28;20025;-66
2022/12/20 12:31:14;;;;;;;4.80;3.58;;;11.70;91.80;;;;;;5033491;28;20387;-66
2022/12/20 12:33:49;;;;;;;5.63;3.30;;;11.70;91.70;;;;;;5024086;28;20025;-66
2022/12/20 12:36:41;;;;;;;5.20;3.40;;;11.70;91.70;;;;;;5023433;28;20021;-66
2022/12/20 12:39:24;;;;;;;4.88;3.03;;;11.70;91.80;;;;;;5029666;28;20030;-66
2022/12/20 12:41:55;;;;;;;5.65;3.65;;;11.70;91.80;;;;;;5027958;28;20064;-66
2022/12/20 12:44:39;;;;;;;5.90;3.90;;;11.70;91.80;;;;;;5027721;28;20518;-66
2022/12/20 12:47:14;;;;;;;4.47;3.03;;;11.70;91.80;;;;;;5032042;28;20549;-67
2022/12/20 12:49:41;;;;;;;5.30;3.90;;;11.70;91.80;;;;;;5033750;28;20060;-66
2022/12/20 12:52:07;;;;;;;5.88;3.40;;;11.70;91.80;;;;;;5034639;28;20052;-66
2022/12/20 12:54:38;;;;;;;4.43;3.88;;;11.70;91.90;;;;;;5029620;28;20038;-66
2022/12/20 12:57:16;;;;;;;4.45;3.30;;;11.70;91.90;;;;;;5034580;28;20022;-66
2022/12/20 12:59:45;;;;;;;4.30;2.92;;;11.70;91.90;;;;;;5027970;28;20028;-66
2022/12/20 13:02:14;;;;;;;4.10;3.03;;;11.80;91.90;;;;;;5028813;28;20021;-66
2022/12/20 13:04:55;;;;;;;6.60;3.30;;;11.80;91.90;;;;;;5028331;28;20044;-66
2022/12/20 13:07:27;;;;;;;4.63;3.63;;;11.80;91.90;;;;;;5031077;28;20511;-65
2022/12/20 13:09:52;;;;;;;5.47;3.38;;;11.80;91.90;;;;;;5031193;28;20029;-65
2022/12/20 13:12:36;;;;;;;7.70;4.25;;;11.80;91.90;;;;;;5028335;28;20026;-66
2022/12/20 13:15:20;;;;;;;6.68;3.50;;;11.80;91.90;;;;;;5025983;28;20388;-66